Rygge, Norway

6:32 PM CET on February 13, 2016 (GMT +0100)
Rygge Air Base | | Change Station
CLOSE
Current Station
Airport
Location: Rygge,
Elevation: 174 ft
Nearby Weather Stations

Elev 174 ft 59.38 °N, 10.79 °E | Updated 12 minutes ago

Mostly Cloudy
Mostly Cloudy
25 °F
Feels Like 25 °F
N
1
Wind Variable Wind from Variable

Today
High -- | Low -- °F
--% Chance of Precip.
Yesterday
High -- | Low -- °F
Precip. -- in
Pressure 29.47 in
Visibility 6.2 miles
Clouds Mostly Cloudy 3800 ft
Dew Point 19 °F
Humidity 80%
Rainfall 0.00 in
Snow Depth Not available.
7:59 AM 5:03 PM
Waxing Crescent, 32% visible
METAR ENRY 131720Z VRB01KT 9999 BKN038 M04/M07 Q0998
Pressure 29.47 in
Visibility 6.2 miles
Clouds Mostly Cloudy 3800 ft
Dew Point 19 °F
Humidity 80%
Rainfall 0.00 in
Snow Depth Not available.
7:59 AM 5:03 PM
Waxing Crescent, 32% visible
METAR ENRY 131720Z VRB01KT 9999 BKN038 M04/M07 Q0998

10-Day Weather Forecast

Almanac

Astronomy

Feb. 13, 2016 Rise Set
Actual Time
Civil Twilight
Nautical Twilight
Astronomical Twilight
Moon
Length of Visible Light
Length of Day
Tomorrow will be .
, % of the Moon is Illuminated

Today's Extremes

Country Highs Country Lows

Community

WunderPhotos

Upload Photos

1,892,622 photos uploaded!

WunderBlog® & News

Nearby

Air Quality

  Air Quality AQ Index Pollutant
Not available.

Snow Depth

Station Depth Elevation

Earthquake Activity

City Distance Mag. Time & Date
Minimum magnitude displayed is 2.5.

Coastal Water Temperatures

Place Temperature

Stations

Nearby Weather Stations

Station Location Temp. Windchill Dew Point Humidity Wind Precip. Elev Updated Type